Time;durP1;ratioP1;P1;durP2;ratioP2;P2;SDS_P1;SDS_P2;PMS_P1;PMS_P2;Temp;Humidity;BMP_temperature;BMP_pressure;BME280_temperature;BME280_humidity;BME280_pressure;Samples;Min_cycle;Max_cycle;Signal;HPM_P1;HPM_P2
2022/06/18 00:01:37;;;;;;;4.40;4.00;;;;;;;21.54;51.37;156904.06;5070736;28;20442;-77
2022/06/18 00:04:06;;;;;;;5.00;3.90;;;;;;;21.47;52.15;156884.50;5070843;28;20430;-77
2022/06/18 00:06:35;;;;;;;3.93;3.63;;;;;;;21.41;51.73;156868.81;5072251;28;20445;-77
2022/06/18 00:09:02;;;;;;;4.03;3.73;;;;;;;21.37;51.82;156859.66;5061997;28;20454;-77
2022/06/18 00:14:15;;;;;;;4.50;4.10;;;;;;;21.28;52.33;156834.88;5052437;28;20416;-77
2022/06/18 00:16:41;;;;;;;4.20;3.90;;;;;;;21.24;52.67;156825.72;5084849;28;20474;-77
2022/06/18 00:19:09;;;;;;;4.03;3.73;;;;;;;21.22;52.71;156820.53;5052725;28;20475;-77
2022/06/18 00:21:36;;;;;;;4.67;4.20;;;;;;;21.22;52.48;156821.84;5084764;28;20504;-76
2022/06/18 00:24:03;;;;;;;4.70;4.30;;;;;;;21.16;53.01;156804.84;5084753;28;20605;-77
2022/06/18 00:26:31;;;;;;;4.53;4.10;;;;;;;21.15;52.81;156802.25;5052492;28;20814;-76
2022/06/18 00:28:57;;;;;;;4.50;4.10;;;;;;;21.15;52.87;156803.53;5093117;28;20470;-82
2022/06/18 00:31:24;;;;;;;5.53;4.10;;;;;;;21.12;53.22;156794.44;5070424;28;20601;-83
2022/06/18 00:33:51;;;;;;;4.50;4.17;;;;;;;21.09;53.34;156787.91;5068654;28;20862;-83
2022/06/18 00:36:18;;;;;;;4.50;4.20;;;;;;;21.05;53.15;156776.06;5054118;28;20434;-82
2022/06/18 00:38:47;;;;;;;4.67;4.30;;;;;;;21.02;53.12;156768.28;5034769;28;20501;-82
2022/06/18 00:41:18;;;;;;;4.90;4.50;;;;;;;21.04;53.19;156773.50;5053252;28;20565;-82
2022/06/18 00:43:50;;;;;;;4.10;3.70;;;;;;;20.96;53.26;156752.63;5104708;28;20863;-82
2022/06/18 00:46:22;;;;;;;4.90;4.30;;;;;;;20.95;53.12;156750.00;5088523;28;20449;-82
2022/06/18 00:48:52;;;;;;;4.63;4.23;;;;;;;20.94;53.08;156748.69;5050288;28;20522;-82
2022/06/18 00:51:23;;;;;;;14.00;4.33;;;;;;;20.94;53.20;156747.41;5050475;28;20489;-83
2022/06/18 00:53:53;;;;;;;4.60;4.20;;;;;;;20.87;53.28;156730.41;5051625;28;20581;-82
2022/06/18 00:56:24;;;;;;;5.20;4.10;;;;;;;20.88;53.36;156731.75;5055270;28;20464;-76
2022/06/18 00:58:57;;;;;;;5.80;4.80;;;;;;;20.85;53.03;156723.91;5086442;28;20470;-77
2022/06/18 01:01:30;;;;;;;4.30;3.90;;;;;;;20.82;53.33;156716.06;5043259;28;20554;-77
2022/06/18 01:03:56;;;;;;;4.33;3.93;;;;;;;20.83;52.96;156720.00;5052067;28;20508;-77
2022/06/18 01:06:29;;;;;;;4.17;3.87;;;;;;;20.85;53.11;156723.91;5052989;28;20454;-77
2022/06/18 01:09:00;;;;;;;4.83;4.37;;;;;;;20.82;53.32;156717.38;5050254;28;20435;-77
2022/06/18 01:11:28;;;;;;;5.50;4.33;;;;;;;20.78;53.57;156705.66;5037647;28;20548;-76
2022/06/18 01:13:57;;;;;;;4.13;3.77;;;;;;;20.73;53.28;156692.63;5033989;28;20449;-77
2022/06/18 01:16:25;;;;;;;4.00;3.70;;;;;;;20.75;53.20;156699.13;5054111;28;20557;-77
2022/06/18 01:18:53;;;;;;;4.33;3.93;;;;;;;20.71;53.21;156688.66;5051653;28;20478;-76
2022/06/18 01:21:26;;;;;;;4.03;3.70;;;;;;;20.70;53.12;156684.78;5069307;28;20557;-76
2022/06/18 01:24:01;;;;;;;4.53;4.13;;;;;;;20.67;53.25;156678.25;5071524;28;20822;-77
2022/06/18 01:26:29;;;;;;;4.87;4.43;;;;;;;20.68;53.03;156679.56;5053521;28;20461;-76
2022/06/18 01:28:57;;;;;;;4.60;4.20;;;;;;;20.71;52.88;156687.34;5069139;28;20442;-77
2022/06/18 01:31:24;;;;;;;4.13;3.83;;;;;;;20.67;53.32;156678.25;5049445;28;20474;-77
2022/06/18 01:33:53;;;;;;;4.70;4.30;;;;;;;20.62;53.46;156666.47;5074060;28;20454;-77
2022/06/18 01:36:22;;;;;;;4.63;4.23;;;;;;;20.64;53.50;156670.41;5050404;28;20439;-77
2022/06/18 01:38:50;;;;;;;4.30;4.00;;;;;;;20.57;54.15;156653.44;5066069;28;20517;-77
2022/06/18 01:44:16;;;;;;;4.83;4.33;;;;;;;20.49;54.66;156632.56;5033300;28;20450;-76
2022/06/18 01:46:44;;;;;;;4.93;4.53;;;;;;;20.42;54.91;156614.31;5083471;28;20442;-77
2022/06/18 01:49:15;;;;;;;5.33;4.93;;;;;;;20.38;55.35;156603.91;5048616;28;20544;-77
2022/06/18 01:51:45;;;;;;;5.73;4.60;;;;;;;20.38;55.47;156603.91;5033588;28;20447;-76
2022/06/18 01:54:15;;;;;;;4.77;4.33;;;;;;;20.36;55.50;156598.66;5033602;28;20486;-76
2022/06/18 01:56:45;;;;;;;5.10;4.60;;;;;;;20.31;56.07;156585.63;5086105;28;20438;-76
2022/06/18 01:59:20;;;;;;;4.80;4.43;;;;;;;20.27;55.96;156575.19;5080869;28;20561;-76
2022/06/18 02:01:48;;;;;;;5.10;4.70;;;;;;;20.24;56.25;156566.06;5052546;28;20438;-75
2022/06/18 02:04:19;;;;;;;5.63;4.90;;;;;;;20.19;56.53;156554.28;5069640;28;20453;-75
2022/06/18 02:06:47;;;;;;;5.00;4.60;;;;;;;20.11;56.66;156533.41;5069839;28;20434;-75
2022/06/18 02:09:33;;;;;;;6.13;5.07;;;;;;;20.00;57.13;156504.72;5038542;28;20552;-75
2022/06/18 02:12:02;;;;;;;5.00;4.60;;;;;;;19.99;56.99;156503.41;5087030;28;20508;-76
2022/06/18 02:14:35;;;;;;;5.27;4.77;;;;;;;20.03;57.13;156512.53;5070693;28;20871;-75
2022/06/18 02:17:03;;;;;;;5.60;5.10;;;;;;;19.97;57.32;156496.88;5086856;28;20474;-75
2022/06/18 02:19:30;;;;;;;7.07;6.37;;;;;;;19.97;57.24;156496.88;5055081;28;20578;-75
2022/06/18 02:21:58;;;;;;;4.80;4.50;;;;;;;19.93;57.40;156487.78;5086884;28;20437;-75
2022/06/18 02:24:25;;;;;;;4.63;4.23;;;;;;;19.89;57.53;156476.03;5087747;28;20446;-77
2022/06/18 02:26:52;;;;;;;5.40;4.90;;;;;;;19.90;57.34;156478.66;5067054;28;20454;-77
2022/06/18 02:29:23;;;;;;;5.37;4.90;;;;;;;19.94;57.38;156489.06;5054687;28;20682;-77
2022/06/18 02:31:52;;;;;;;4.63;4.23;;;;;;;19.92;57.52;156485.16;5071482;28;20872;-77
2022/06/18 02:34:22;;;;;;;5.20;4.70;;;;;;;19.89;57.60;156477.34;5065519;28;20499;-75
2022/06/18 02:36:49;;;;;;;6.77;4.60;;;;;;;19.91;57.75;156481.22;5072150;28;20503;-75
2022/06/18 02:39:28;;;;;;;6.10;5.30;;;;;;;19.87;57.89;156470.81;5089103;28;20473;-77
2022/06/18 02:42:00;;;;;;;4.40;4.03;;;;;;;19.80;58.18;156453.84;5067139;28;20451;-77
2022/06/18 02:44:27;;;;;;;5.40;4.90;;;;;;;19.73;58.71;156435.59;5073284;28;20548;-77
2022/06/18 02:46:55;;;;;;;4.90;4.50;;;;;;;19.69;58.47;156425.19;5105432;28;20472;-77
2022/06/18 02:49:25;;;;;;;4.83;4.43;;;;;;;19.71;58.28;156430.41;5097065;28;20451;-77
2022/06/18 02:51:52;;;;;;;6.10;4.60;;;;;;;19.72;58.24;156431.72;5052742;28;20450;-77
2022/06/18 02:54:20;;;;;;;4.93;4.43;;;;;;;19.71;58.44;156429.09;5069186;28;20474;-77
2022/06/18 02:56:48;;;;;;;5.10;4.70;;;;;;;19.72;58.28;156433.03;5085473;28;20566;-77
2022/06/18 02:59:14;;;;;;;5.10;4.53;;;;;;;19.66;58.74;156416.06;5068650;28;20576;-77
2022/06/18 03:01:42;;;;;;;5.80;5.20;;;;;;;19.67;58.64;156418.69;5061514;28;20516;-77
2022/06/18 03:04:10;;;;;;;4.87;4.47;;;;;;;19.62;58.54;156405.66;5106630;28;20438;-77
2022/06/18 03:06:37;;;;;;;4.87;4.47;;;;;;;19.61;58.74;156404.34;5043580;28;20530;-77
2022/06/18 03:09:05;;;;;;;5.23;4.73;;;;;;;19.64;58.44;156412.16;5056635;28;20489;-77
2022/06/18 03:14:17;;;;;;;5.20;4.80;;;;;;;19.62;58.33;156406.91;5055672;28;20438;-77
2022/06/18 03:17:18;;;;;;;5.33;4.67;;;;;;;19.60;58.54;156400.41;5061750;28;20458;-77
2022/06/18 03:19:49;;;;;;;5.50;5.00;;;;;;;19.64;58.11;156410.84;5069187;28;21028;-77
2022/06/18 03:22:18;;;;;;;4.63;4.23;;;;;;;19.68;57.93;156421.25;5051358;28;20926;-77
2022/06/18 03:24:45;;;;;;;4.70;4.30;;;;;;;19.63;58.09;156409.53;5051323;28;20451;-77
2022/06/18 03:27:14;;;;;;;7.07;4.77;;;;;;;19.67;57.98;156418.69;5068774;28;20442;-77
2022/06/18 03:29:46;;;;;;;4.73;4.33;;;;;;;19.68;57.54;156421.25;5050619;28;20466;-77
2022/06/18 03:32:13;;;;;;;4.87;4.53;;;;;;;19.65;58.05;156413.44;5049647;28;20940;-77
2022/06/18 03:34:39;;;;;;;4.93;4.43;;;;;;;19.63;58.05;156408.22;5065190;28;20492;-77
2022/06/18 03:37:08;;;;;;;5.20;4.70;;;;;;;19.65;57.92;156414.75;5056085;28;20453;-77
2022/06/18 03:39:35;;;;;;;7.63;5.10;;;;;;;19.64;58.40;156410.84;5052214;28;20490;-77
2022/06/18 03:42:02;;;;;;;4.77;4.30;;;;;;;19.63;58.16;156408.22;5051398;28;20454;-77
2022/06/18 03:44:29;;;;;;;6.57;4.53;;;;;;;19.65;58.04;156414.75;5051895;28;20490;-77
2022/06/18 03:46:59;;;;;;;5.30;4.90;;;;;;;19.68;57.97;156422.56;5051471;28;20443;-77
2022/06/18 03:49:33;;;;;;;8.00;4.67;;;;;;;19.69;57.92;156423.88;5057584;28;20953;-77
2022/06/18 03:52:03;;;;;;;5.93;5.37;;;;;;;19.69;57.77;156425.19;5035312;28;20458;-77
2022/06/18 03:54:33;;;;;;;5.00;4.60;;;;;;;19.74;57.45;156436.91;5093401;28;20812;-77
2022/06/18 03:57:01;;;;;;;4.77;4.37;;;;;;;19.77;57.41;156446.06;5064224;28;20473;-77
2022/06/18 03:59:29;;;;;;;4.50;4.20;;;;;;;19.85;57.14;156466.94;5054769;28;20496;-77
2022/06/18 04:01:56;;;;;;;4.70;4.30;;;;;;;19.90;56.90;156478.66;5055749;28;20442;-77
2022/06/18 04:04:28;;;;;;;5.13;4.63;;;;;;;19.94;56.86;156490.38;5071670;28;20534;-77
2022/06/18 04:06:56;;;;;;;5.83;4.13;;;;;;;20.02;56.53;156509.91;5083049;28;20550;-77
2022/06/18 04:10:03;;;;;;;5.43;5.03;;;;;;;20.08;56.04;156525.59;5006991;28;20540;-77
2022/06/18 04:12:30;;;;;;;5.40;5.00;;;;;;;20.22;55.76;156560.81;4990387;28;20548;-77
2022/06/18 04:15:23;;;;;;;5.00;4.60;;;;;;;20.36;55.42;156598.66;5028755;28;20458;-77
2022/06/18 04:18:10;;;;;;;4.70;4.30;;;;;;;20.49;55.01;156632.56;5087805;28;20477;-77
2022/06/18 04:20:38;;;;;;;5.10;4.60;;;;;;;20.58;54.77;156656.06;5071804;28;20480;-76
2022/06/18 04:23:09;;;;;;;5.67;5.17;;;;;;;20.75;54.34;156699.13;5053143;28;20473;-76
2022/06/18 04:25:42;;;;;;;4.63;4.23;;;;;;;20.93;53.76;156744.78;5084667;28;20450;-77
2022/06/18 04:28:10;;;;;;;5.10;4.70;;;;;;;21.06;53.63;156780.06;5067735;28;20982;-76
2022/06/18 04:30:37;;;;;;;4.67;4.27;;;;;;;21.25;53.52;156828.34;5053783;28;20447;-77
2022/06/18 04:33:09;;;;;;;5.40;4.90;;;;;;;21.47;52.64;156885.75;5045830;28;20432;-76
2022/06/18 04:35:41;;;;;;;4.83;4.43;;;;;;;21.68;52.24;156939.31;5040652;28;20457;-76
2022/06/18 04:38:11;;;;;;;4.90;4.50;;;;;;;21.87;51.99;156987.69;5074600;28;20462;-76
2022/06/18 04:40:59;;;;;;;5.17;4.67;;;;;;;22.09;51.13;157045.09;5070697;28;20465;-76
2022/06/18 04:43:39;;;;;;;5.40;5.00;;;;;;;22.25;50.59;157086.91;5069470;28;20452;-77
2022/06/18 04:46:06;;;;;;;6.03;4.37;;;;;;;22.46;50.03;157141.75;5065121;28;20452;-77
2022/06/18 04:48:32;;;;;;;4.67;4.27;;;;;;;22.61;49.71;157180.94;5052886;28;20484;-77
2022/06/18 04:50:59;;;;;;;5.40;4.90;;;;;;;22.78;49.49;157224.09;5070633;28;20444;-77
2022/06/18 04:53:27;;;;;;;5.50;4.87;;;;;;;22.94;49.33;157267.25;5053235;28;20453;-77
2022/06/18 04:55:59;;;;;;;5.60;5.10;;;;;;;23.11;48.75;157309.06;5050327;28;20451;-77
2022/06/18 04:58:26;;;;;;;4.53;4.23;;;;;;;23.24;48.69;157343.03;5049824;28;20482;-77
2022/06/18 05:00:55;;;;;;;5.07;4.67;;;;;;;23.38;48.49;157380.97;5042487;28;20493;-77
2022/06/18 05:03:49;;;;;;;5.10;4.70;;;;;;;23.55;48.01;157425.41;5049559;28;20465;-77
2022/06/18 05:06:26;;;;;;;5.10;4.70;;;;;;;23.78;47.70;157484.22;5034791;28;20470;-77
2022/06/18 05:09:05;;;;;;;5.57;5.17;;;;;;;23.95;47.74;157528.69;5067021;28;20447;-77
2022/06/18 05:11:52;;;;;;;4.77;4.37;;;;;;;24.13;47.72;157574.50;5083605;28;20442;-77
2022/06/18 05:14:26;;;;;;;4.93;4.50;;;;;;;24.23;47.43;157601.97;5084094;28;20904;-77
2022/06/18 05:16:57;;;;;;;5.20;4.80;;;;;;;24.42;47.41;157649.03;5067010;28;20450;-77
2022/06/18 05:19:26;;;;;;;5.43;4.93;;;;;;;24.46;47.82;157659.53;5049017;28;20849;-77
2022/06/18 05:21:56;;;;;;;4.90;4.40;;;;;;;24.49;48.04;157667.38;5050857;28;20496;-77
2022/06/18 05:24:25;;;;;;;5.27;4.87;;;;;;;24.62;47.75;157701.38;5048495;28;20466;-77
2022/06/18 05:26:56;;;;;;;5.30;4.80;;;;;;;24.73;47.65;157730.13;5066816;28;20849;-77
2022/06/18 05:29:23;;;;;;;4.90;4.50;;;;;;;24.82;47.18;157753.75;5050191;28;20450;-77
2022/06/18 05:31:50;;;;;;;5.17;4.77;;;;;;;25.03;46.89;157808.69;5068051;28;20530;-77
2022/06/18 05:34:17;;;;;;;5.37;4.97;;;;;;;25.07;46.69;157817.88;5057994;28;20480;-77
2022/06/18 05:36:47;;;;;;;5.00;4.60;;;;;;;25.15;46.65;157840.09;5049509;28;20442;-77
2022/06/18 05:39:17;;;;;;;7.10;5.07;;;;;;;25.29;46.63;157876.75;5040708;28;20492;-77
2022/06/18 05:41:44;;;;;;;5.33;4.90;;;;;;;25.43;46.68;157913.41;5085850;28;20846;-77
2022/06/18 05:44:12;;;;;;;5.40;5.00;;;;;;;25.67;46.90;157973.66;5085099;28;20463;-77
2022/06/18 05:46:39;;;;;;;6.10;5.50;;;;;;;25.80;46.59;158007.69;5084077;28;20438;-77
2022/06/18 05:49:06;;;;;;;5.40;5.00;;;;;;;26.01;46.67;158062.66;5049724;28;20454;-77
2022/06/18 05:51:33;;;;;;;5.67;5.17;;;;;;;26.15;45.79;158099.41;5036984;28;20477;-77
2022/06/18 05:54:01;;;;;;;5.70;5.30;;;;;;;26.34;45.46;158147.84;5057117;28;20449;-77
2022/06/18 05:56:42;;;;;;;5.87;5.37;;;;;;;26.44;44.99;158175.34;5058040;28;20446;-77
2022/06/18 05:59:26;;;;;;;5.20;4.80;;;;;;;26.76;44.54;158256.53;5069583;28;20473;-77
2022/06/18 06:01:56;;;;;;;5.10;4.70;;;;;;;26.76;43.90;158256.53;5064570;28;20576;-77
2022/06/18 06:04:25;;;;;;;6.00;5.40;;;;;;;26.95;43.29;158306.38;5033424;28;20551;-78
2022/06/18 06:06:53;;;;;;;5.67;5.27;;;;;;;27.13;43.47;158353.53;5049947;28;20474;-78
2022/06/18 06:12:02;;;;;;;5.80;5.40;;;;;;;27.35;42.52;158409.91;5065863;28;20842;-78
2022/06/18 06:14:31;;;;;;;5.80;5.30;;;;;;;27.31;42.02;158400.69;5050987;28;20460;-78
2022/06/18 06:16:58;;;;;;;5.67;5.23;;;;;;;27.53;42.07;158458.44;5069402;28;20529;-78
2022/06/18 06:19:25;;;;;;;6.13;5.50;;;;;;;27.62;42.09;158482.00;5085824;28;20910;-78
2022/06/18 06:21:51;;;;;;;5.60;5.17;;;;;;;28.02;41.07;158584.28;5058247;28;20445;-78
2022/06/18 06:24:18;;;;;;;5.20;4.80;;;;;;;28.33;40.49;158665.56;5068536;28;20457;-78
2022/06/18 06:26:45;;;;;;;5.77;5.27;;;;;;;28.33;40.47;158666.88;5055766;28;20502;-78
2022/06/18 06:29:12;;;;;;;5.10;4.70;;;;;;;28.10;40.74;158605.25;5066450;28;20813;-78
2022/06/18 06:31:40;;;;;;;8.10;4.80;;;;;;;28.21;41.08;158634.09;5049959;28;20569;-78
2022/06/18 06:34:07;;;;;;;6.20;5.60;;;;;;;28.31;41.12;158660.31;5101284;28;20503;-78
2022/06/18 06:36:33;;;;;;;5.83;5.30;;;;;;;28.46;41.10;158698.38;5069256;28;20492;-78
2022/06/18 06:39:00;;;;;;;5.60;5.20;;;;;;;28.44;41.29;158694.41;5069939;28;20470;-78
2022/06/18 06:41:28;;;;;;;5.80;5.30;;;;;;;28.46;42.17;158699.69;5067595;28;20544;-78
2022/06/18 06:43:55;;;;;;;5.83;5.30;;;;;;;28.76;41.61;158778.41;5048934;28;20557;-78
2022/06/18 06:46:22;;;;;;;5.80;5.40;;;;;;;28.72;41.28;158767.94;5063406;28;20485;-78
2022/06/18 06:48:50;;;;;;;6.40;5.90;;;;;;;28.96;41.16;158830.84;5063579;28;20447;-78
2022/06/18 06:51:21;;;;;;;6.13;5.63;;;;;;;29.26;41.33;158908.31;5083302;28;20482;-78
2022/06/18 06:53:48;;;;;;;5.73;5.23;;;;;;;29.51;40.57;158972.59;5085572;28;20553;-78
2022/06/18 06:59:04;;;;;;;5.70;5.20;;;;;;;29.64;41.18;159005.41;5033127;28;20488;-78
2022/06/18 07:01:34;;;;;;;6.03;5.47;;;;;;;29.99;40.76;159097.34;5052807;28;20427;-78
2022/06/18 07:04:02;;;;;;;5.90;5.23;;;;;;;29.95;40.25;159088.13;5062963;28;20477;-78
2022/06/18 07:06:29;;;;;;;5.60;5.13;;;;;;;29.95;40.65;159088.13;5052440;28;20538;-79
2022/06/18 07:08:56;;;;;;;5.83;5.27;;;;;;;30.01;40.40;159102.56;5050857;28;20453;-78
2022/06/18 07:11:23;;;;;;;6.00;5.40;;;;;;;30.13;40.94;159135.38;5050947;28;20537;-78
2022/06/18 07:13:52;;;;;;;6.33;5.10;;;;;;;30.35;39.59;159190.50;5065967;28;20794;-78
2022/06/18 07:16:22;;;;;;;5.83;5.33;;;;;;;30.35;39.74;159190.50;5050725;28;20454;-78
2022/06/18 07:18:52;;;;;;;5.60;5.10;;;;;;;30.67;39.25;159274.59;5088163;28;20501;-78
2022/06/18 07:21:21;;;;;;;5.93;5.43;;;;;;;30.71;39.38;159285.13;5059183;28;20443;-78
2022/06/18 07:23:48;;;;;;;5.20;4.77;;;;;;;30.87;39.13;159327.09;5049197;28;20435;-79
2022/06/18 07:26:17;;;;;;;6.17;4.93;;;;;;;31.01;37.82;159363.94;5051059;28;20453;-78
2022/06/18 07:28:44;;;;;;;5.07;4.60;;;;;;;31.18;37.92;159408.63;5050559;28;20542;-78
2022/06/18 07:31:15;;;;;;;4.97;4.57;;;;;;;31.22;38.05;159417.78;5085140;28;20446;-78
2022/06/18 07:33:43;;;;;;;8.63;4.97;;;;;;;31.48;38.06;159486.13;5103988;28;20449;-78
2022/06/18 07:36:10;;;;;;;6.80;5.30;;;;;;;31.60;37.02;159516.38;5068754;28;20545;-79
2022/06/18 07:38:38;;;;;;;6.07;4.93;;;;;;;31.84;37.16;159579.44;5056736;28;20443;-78
2022/06/18 07:41:05;;;;;;;7.07;5.33;;;;;;;32.03;36.64;159629.44;5053467;28;20446;-78
2022/06/18 07:43:35;;;;;;;5.17;4.67;;;;;;;31.96;37.17;159609.69;5099131;28;20820;-78
2022/06/18 07:46:03;;;;;;;5.43;4.50;;;;;;;31.93;36.47;159603.09;5072514;28;20430;-79
2022/06/18 07:48:29;;;;;;;5.13;4.63;;;;;;;32.13;36.21;159654.38;5105818;28;20425;-79
2022/06/18 07:50:56;;;;;;;6.80;4.80;;;;;;;32.34;35.19;159709.56;5066107;28;20442;-79
2022/06/18 07:53:24;;;;;;;4.53;4.13;;;;;;;32.21;35.67;159676.72;5093678;28;20455;-77
2022/06/18 07:55:56;;;;;;;5.03;4.60;;;;;;;32.23;35.49;159681.97;5099995;28;20534;-77
2022/06/18 07:58:23;;;;;;;5.07;4.60;;;;;;;32.18;35.26;159668.84;5068700;28;20430;-77
2022/06/18 08:00:51;;;;;;;5.00;4.60;;;;;;;32.49;35.98;159750.31;5107125;27;20570;-77
2022/06/18 08:03:18;;;;;;;5.03;4.67;;;;;;;32.81;35.48;159831.84;5072048;28;20444;-77
2022/06/18 08:05:46;;;;;;;5.60;5.10;;;;;;;33.16;35.15;159923.97;5036205;28;20859;-77
2022/06/18 08:08:13;;;;;;;6.13;5.47;;;;;;;33.47;35.06;160005.47;5052547;28;20537;-77
2022/06/18 08:10:41;;;;;;;6.30;4.83;;;;;;;33.43;33.49;159994.97;5084633;28;20434;-77
2022/06/18 08:13:10;;;;;;;5.50;5.00;;;;;;;33.21;34.44;159935.78;5063514;28;20465;-77
2022/06/18 08:15:37;;;;;;;4.50;4.20;;;;;;;33.16;34.34;159923.97;5066647;28;20487;-76
2022/06/18 08:18:07;;;;;;;5.00;4.40;;;;;;;33.58;33.77;160034.47;5094339;28;20915;-77
2022/06/18 08:20:35;;;;;;;6.03;4.20;;;;;;;33.78;33.66;160085.78;5084513;28;20481;-77
2022/06/18 08:23:03;;;;;;;4.53;4.23;;;;;;;33.75;30.87;160076.56;5071558;28;20438;-77
2022/06/18 08:25:31;;;;;;;5.20;4.13;;;;;;;33.78;31.72;160085.78;5100443;28;20948;-77
2022/06/18 08:27:59;;;;;;;4.70;4.40;;;;;;;33.60;32.34;160038.41;5069907;28;20425;-77
2022/06/18 08:30:27;;;;;;;4.50;4.20;;;;;;;33.44;30.33;159997.59;5101476;28;20471;-77
2022/06/18 08:32:54;;;;;;;3.93;3.63;;;;;;;33.32;28.51;159966.03;5071422;28;20445;-77
2022/06/18 08:35:21;;;;;;;3.93;3.63;;;;;;;33.56;31.29;160029.22;5062252;28;20447;-77
2022/06/18 08:37:49;;;;;;;4.40;4.00;;;;;;;33.63;30.34;160046.28;5063366;28;20461;-77
2022/06/18 08:40:37;;;;;;;4.77;4.37;;;;;;;33.68;31.54;160060.78;5036217;28;20466;-77
2022/06/18 08:43:16;;;;;;;5.33;4.87;;;;;;;33.66;29.35;160055.53;5051919;28;20919;-77
2022/06/18 08:45:50;;;;;;;5.20;4.10;;;;;;;33.81;31.05;160093.66;5093874;28;20532;-77
2022/06/18 08:48:32;;;;;;;4.20;3.80;;;;;;;34.13;30.61;160176.56;5069960;28;20631;-76
2022/06/18 08:51:11;;;;;;;5.73;3.87;;;;;;;34.25;30.36;160208.19;5062004;28;20503;-77
2022/06/18 08:54:02;;;;;;;3.60;3.30;;;;;;;34.43;29.02;160255.53;5071482;28;20418;-77
2022/06/18 08:56:33;;;;;;;4.43;4.13;;;;;;;34.20;29.63;160195.03;5071493;28;20795;-77
2022/06/18 08:59:03;;;;;;;4.90;3.90;;;;;;;33.98;31.66;160137.06;5066501;28;20800;-77
2022/06/18 09:01:33;;;;;;;5.00;4.60;;;;;;;34.06;30.36;160159.50;5093462;28;20544;-77
2022/06/18 09:04:11;;;;;;;4.50;3.97;;;;;;;33.97;30.81;160134.47;5092609;28;20441;-77
2022/06/18 09:06:51;;;;;;;4.50;4.13;;;;;;;33.91;30.69;160118.66;5071149;28;20540;-77
2022/06/18 09:09:25;;;;;;;5.10;4.70;;;;;;;34.06;31.29;160158.13;5066696;28;20445;-77
2022/06/18 09:12:09;;;;;;;4.80;4.50;;;;;;;34.36;30.85;160235.81;5062679;28;20442;-77
2022/06/18 09:14:41;;;;;;;4.47;4.17;;;;;;;34.54;30.01;160284.50;5051756;28;20423;-77
2022/06/18 09:17:15;;;;;;;4.50;4.10;;;;;;;34.93;29.82;160384.53;5100459;28;20437;-77
2022/06/18 09:19:43;;;;;;;4.23;3.90;;;;;;;34.37;28.44;160239.72;5075340;22;20533;-80
2022/06/18 09:22:15;;;;;;;5.30;4.30;;;;;;;34.45;30.46;160260.78;5051509;28;20419;-80
2022/06/18 09:24:44;;;;;;;4.93;4.53;;;;;;;34.75;29.39;160338.50;5051759;28;20442;-80
2022/06/18 09:27:17;;;;;;;5.43;4.10;;;;;;;34.98;28.98;160397.69;5038770;28;20427;-80
2022/06/18 09:29:48;;;;;;;5.10;4.60;;;;;;;34.57;29.46;160292.44;5051101;28;20504;-80
2022/06/18 09:32:19;;;;;;;4.37;3.97;;;;;;;35.10;29.33;160429.38;5050272;28;20521;-80
2022/06/18 09:34:51;;;;;;;4.70;4.30;;;;;;;34.88;29.21;160374.03;5050046;28;20959;-80
2022/06/18 09:37:27;;;;;;;4.67;4.00;;;;;;;34.75;29.03;160339.81;5042383;28;20530;-80
2022/06/18 09:39:57;;;;;;;4.50;4.10;;;;;;;34.52;29.71;160279.25;5048683;28;20505;-80
2022/06/18 09:42:26;;;;;;;4.10;3.70;;;;;;;34.65;27.48;160313.50;5049944;28;20940;-80
2022/06/18 09:44:59;;;;;;;3.97;3.67;;;;;;;34.38;28.67;160242.38;5050389;28;20438;-80
2022/06/18 09:47:33;;;;;;;4.23;3.93;;;;;;;34.23;29.63;160204.19;5045447;28;20549;-80
2022/06/18 09:50:00;;;;;;;5.33;4.80;;;;;;;34.11;31.56;160172.66;5046125;28;20440;-80
2022/06/18 09:52:33;;;;;;;4.80;4.43;;;;;;;33.30;31.59;159960.78;5046014;28;20592;-80
2022/06/18 09:55:07;;;;;;;4.30;4.00;;;;;;;33.24;31.24;159945.00;5049409;28;20481;-80
2022/06/18 09:57:36;;;;;;;3.97;3.67;;;;;;;33.29;31.74;159956.81;5046838;28;20449;-80
2022/06/18 10:00:08;;;;;;;4.20;3.90;;;;;;;33.75;30.75;160077.91;5029742;28;21067;-76
2022/06/18 10:02:43;;;;;;;3.80;3.50;;;;;;;33.51;28.96;160016.03;5060409;28;20943;-76
2022/06/18 10:08:01;;;;;;;4.13;3.50;;;;;;;33.23;29.58;159941.06;5049861;28;20497;-76
2022/06/18 10:10:28;;;;;;;3.53;3.17;;;;;;;33.21;30.13;159937.09;5044837;28;20487;-76
2022/06/18 10:12:58;;;;;;;5.63;4.20;;;;;;;33.14;29.26;159917.38;5061918;28;20469;-76
2022/06/18 10:15:26;;;;;;;4.03;3.73;;;;;;;33.27;29.54;159952.91;5046828;28;20455;-76
2022/06/18 10:18:26;;;;;;;3.80;3.50;;;;;;;33.30;28.64;159960.78;5043201;28;20537;-76
2022/06/18 10:20:57;;;;;;;3.70;3.40;;;;;;;33.46;28.56;160002.88;5009924;28;20903;-76
2022/06/18 10:23:36;;;;;;;4.50;3.57;;;;;;;33.28;28.02;159954.22;5043867;28;20549;-76
2022/06/18 10:26:08;;;;;;;4.23;3.80;;;;;;;33.24;30.05;159945.00;5044093;28;20524;-76
2022/06/18 10:28:43;;;;;;;5.13;4.10;;;;;;;33.32;30.29;159964.72;5040916;28;20480;-76
2022/06/18 10:31:14;;;;;;;5.33;3.60;;;;;;;33.34;30.13;159969.97;5048529;28;20958;-76
2022/06/18 10:33:48;;;;;;;4.00;3.60;;;;;;;32.92;29.18;159860.78;5045293;28;20540;-76
2022/06/18 10:36:19;;;;;;;5.00;4.10;;;;;;;33.06;30.03;159897.66;5051814;28;20529;-76
2022/06/18 10:39:04;;;;;;;4.50;4.20;;;;;;;32.98;29.59;159877.91;5052794;28;20462;-75
2022/06/18 10:41:38;;;;;;;4.40;4.00;;;;;;;32.98;30.37;159877.91;5053139;28;20466;-75
2022/06/18 10:44:13;;;;;;;4.07;3.70;;;;;;;32.96;29.76;159871.34;5046580;28;20466;-75
2022/06/18 10:46:40;;;;;;;4.10;3.80;;;;;;;32.96;29.22;159872.59;5038954;28;20510;-76
2022/06/18 10:49:09;;;;;;;4.43;4.03;;;;;;;32.92;28.92;159860.78;5052669;28;20454;-75
2022/06/18 10:51:43;;;;;;;4.40;4.00;;;;;;;33.04;30.65;159892.38;5042715;28;20444;-76
2022/06/18 10:54:10;;;;;;;3.77;3.47;;;;;;;33.49;28.33;160010.72;5052517;28;20444;-76
2022/06/18 10:56:48;;;;;;;3.40;3.10;;;;;;;33.39;28.57;159983.13;5050680;28;20455;-75
2022/06/18 10:59:15;;;;;;;4.30;3.77;;;;;;;33.18;29.45;159929.19;5034636;28;20471;-75
2022/06/18 11:01:45;;;;;;;3.20;3.00;;;;;;;32.90;29.73;159856.88;5042008;28;21055;-75
2022/06/18 11:04:21;;;;;;;4.60;3.70;;;;;;;32.99;30.40;159879.22;5051467;28;20455;-75
2022/06/18 11:06:50;;;;;;;4.40;3.80;;;;;;;33.26;29.32;159948.94;5037122;28;20434;-75
2022/06/18 11:09:21;;;;;;;3.50;3.20;;;;;;;33.16;28.14;159922.63;5051752;28;20949;-75
2022/06/18 11:11:53;;;;;;;6.10;3.20;;;;;;;33.17;28.63;159925.28;5054343;28;20459;-75
2022/06/18 11:14:21;;;;;;;3.60;3.30;;;;;;;33.29;28.42;159956.81;5051570;28;20454;-75
2022/06/18 11:16:49;;;;;;;3.70;3.40;;;;;;;33.14;28.54;159918.72;5051851;28;20992;-75
2022/06/18 11:19:19;;;;;;;4.43;3.43;;;;;;;33.13;28.63;159916.06;5043905;28;20473;-75
2022/06/18 11:21:46;;;;;;;3.50;3.20;;;;;;;33.22;28.99;159938.44;5048221;28;20463;-75
2022/06/18 11:24:31;;;;;;;3.97;3.53;;;;;;;33.32;29.03;159966.03;5051215;28;20470;-75
2022/06/18 11:27:00;;;;;;;3.73;3.43;;;;;;;33.22;29.34;159939.75;5049897;28;20479;-75
2022/06/18 11:29:31;;;;;;;3.67;3.37;;;;;;;33.41;29.23;159988.41;5050131;28;20883;-75
2022/06/18 11:31:59;;;;;;;3.40;3.10;;;;;;;33.51;28.94;160016.03;5050283;28;20513;-75
2022/06/18 11:34:29;;;;;;;3.50;3.20;;;;;;;33.47;28.61;160005.47;5051480;28;20453;-75
2022/06/18 11:36:58;;;;;;;6.20;3.40;;;;;;;33.45;28.07;160000.22;5050203;28;20866;-75
2022/06/18 11:39:35;;;;;;;7.13;3.80;;;;;;;33.25;27.44;159947.66;5050430;28;20994;-75
2022/06/18 11:42:08;;;;;;;3.90;3.60;;;;;;;33.36;28.47;159975.25;5051708;28;20555;-75
2022/06/18 11:44:40;;;;;;;3.70;3.33;;;;;;;33.23;28.07;159942.34;5052423;28;20450;-76
2022/06/18 11:47:11;;;;;;;6.93;3.60;;;;;;;32.98;29.37;159876.59;5043681;28;20436;-76
2022/06/18 11:49:43;;;;;;;4.40;3.70;;;;;;;32.92;29.35;159860.78;5050531;28;21068;-75
2022/06/18 11:52:14;;;;;;;3.93;3.30;;;;;;;32.88;29.18;159851.63;5056041;28;20445;-75
2022/06/18 11:54:49;;;;;;;3.57;3.27;;;;;;;32.92;28.10;159860.78;5050582;28;20451;-75
2022/06/18 11:57:21;;;;;;;4.50;3.23;;;;;;;32.85;28.43;159842.41;5050382;28;20443;-75